sensor_id;sensor_type;location;lat;lon;timestamp;pressure;altitude;pressure_sealevel;temperature;humidity
45813;BME280;31519;45.408;10.962;2023-03-01T00:01:46;101175.97;;;10.22;44.60
45813;BME280;31519;45.408;10.962;2023-03-01T00:04:13;101173.88;;;9.96;45.73
45813;BME280;31519;45.408;10.962;2023-03-01T00:06:42;101175.41;;;10.02;46.29
45813;BME280;31519;45.408;10.962;2023-03-01T00:09:14;101176.31;;;9.92;46.94
45813;BME280;31519;45.408;10.962;2023-03-01T00:11:44;101172.22;;;10.00;46.66
45813;BME280;31519;45.408;10.962;2023-03-01T00:14:12;101170.25;;;10.10;46.72
45813;BME280;31519;45.408;10.962;2023-03-01T00:16:42;101170.72;;;9.94;46.63
45813;BME280;31519;45.408;10.962;2023-03-01T00:19:14;101160.28;;;9.97;46.05
45813;BME280;31519;45.408;10.962;2023-03-01T00:21:43;101163.75;;;9.98;45.21
45813;BME280;31519;45.408;10.962;2023-03-01T00:24:11;101155.97;;;10.01;45.26
45813;BME280;31519;45.408;10.962;2023-03-01T00:26:39;101145.09;;;9.74;46.05
45813;BME280;31519;45.408;10.962;2023-03-01T00:29:07;101150.25;;;9.37;48.19
45813;BME280;31519;45.408;10.962;2023-03-01T00:31:36;101151.88;;;9.32;49.02
45813;BME280;31519;45.408;10.962;2023-03-01T00:34:05;101147.13;;;9.29;49.25
45813;BME280;31519;45.408;10.962;2023-03-01T00:36:35;101139.16;;;9.29;49.10
45813;BME280;31519;45.408;10.962;2023-03-01T00:39:09;101139.69;;;9.26;49.38
45813;BME280;31519;45.408;10.962;2023-03-01T00:41:38;101134.19;;;9.18;49.91
45813;BME280;31519;45.408;10.962;2023-03-01T00:44:08;101138.25;;;9.10;50.09
45813;BME280;31519;45.408;10.962;2023-03-01T00:46:38;101131.44;;;8.94;50.75
45813;BME280;31519;45.408;10.962;2023-03-01T00:49:06;101131.88;;;9.11;51.04
45813;BME280;31519;45.408;10.962;2023-03-01T00:51:34;101127.84;;;8.80;51.92
45813;BME280;31519;45.408;10.962;2023-03-01T00:54:02;101129.41;;;8.86;52.30
45813;BME280;31519;45.408;10.962;2023-03-01T00:56:31;101139.53;;;8.84;52.26
45813;BME280;31519;45.408;10.962;2023-03-01T00:59:00;101130.06;;;8.63;53.15
45813;BME280;31519;45.408;10.962;2023-03-01T01:01:30;101120.31;;;8.92;52.89
45813;BME280;31519;45.408;10.962;2023-03-01T01:04:04;101129.16;;;8.82;53.31
45813;BME280;31519;45.408;10.962;2023-03-01T01:06:35;101120.09;;;8.44;54.45
45813;BME280;31519;45.408;10.962;2023-03-01T01:09:06;101121.63;;;8.56;54.30
45813;BME280;31519;45.408;10.962;2023-03-01T01:11:35;101111.94;;;8.26;54.92
45813;BME280;31519;45.408;10.962;2023-03-01T01:14:06;101105.78;;;8.40;54.44
45813;BME280;31519;45.408;10.962;2023-03-01T01:16:34;101107.34;;;8.47;52.89
45813;BME280;31519;45.408;10.962;2023-03-01T01:19:02;101104.66;;;8.57;51.51
45813;BME280;31519;45.408;10.962;2023-03-01T01:21:31;101100.41;;;8.51;51.91
45813;BME280;31519;45.408;10.962;2023-03-01T01:23:59;101086.16;;;8.36;52.65
45813;BME280;31519;45.408;10.962;2023-03-01T01:26:30;101087.47;;;8.39;51.70
45813;BME280;31519;45.408;10.962;2023-03-01T01:29:00;101076.56;;;8.45;52.90
45813;BME280;31519;45.408;10.962;2023-03-01T01:31:29;101081.69;;;8.22;53.54
45813;BME280;31519;45.408;10.962;2023-03-01T01:33:59;101076.72;;;8.15;54.70
45813;BME280;31519;45.408;10.962;2023-03-01T01:36:28;101073.47;;;8.33;54.47
45813;BME280;31519;45.408;10.962;2023-03-01T01:38:57;101070.97;;;8.47;53.87
45813;BME280;31519;45.408;10.962;2023-03-01T01:41:27;101060.44;;;8.32;53.97
45813;BME280;31519;45.408;10.962;2023-03-01T01:49:47;101053.94;;;8.04;55.20
45813;BME280;31519;45.408;10.962;2023-03-01T01:52:27;101045.44;;;8.02;55.76
45813;BME280;31519;45.408;10.962;2023-03-01T01:55:09;101043.88;;;8.01;55.46
45813;BME280;31519;45.408;10.962;2023-03-01T01:57:44;101043.66;;;7.92;55.43
45813;BME280;31519;45.408;10.962;2023-03-01T02:00:19;101047.63;;;7.90;55.90
45813;BME280;31519;45.408;10.962;2023-03-01T02:02:51;101036.88;;;8.20;55.26
45813;BME280;31519;45.408;10.962;2023-03-01T02:05:37;101037.88;;;8.34;55.39
45813;BME280;31519;45.408;10.962;2023-03-01T02:08:08;101040.41;;;8.06;55.47
45813;BME280;31519;45.408;10.962;2023-03-01T02:10:37;101034.97;;;8.31;55.52
45813;BME280;31519;45.408;10.962;2023-03-01T02:13:07;101027.63;;;8.13;56.02
45813;BME280;31519;45.408;10.962;2023-03-01T02:15:36;101029.94;;;7.70;57.31
45813;BME280;31519;45.408;10.962;2023-03-01T02:18:07;101026.19;;;7.81;57.26
45813;BME280;31519;45.408;10.962;2023-03-01T02:20:40;101020.84;;;7.91;56.92
45813;BME280;31519;45.408;10.962;2023-03-01T02:23:13;101011.84;;;7.92;57.30
45813;BME280;31519;45.408;10.962;2023-03-01T02:25:47;101016.38;;;7.87;56.89
45813;BME280;31519;45.408;10.962;2023-03-01T02:28:33;101013.59;;;8.07;56.66
45813;BME280;31519;45.408;10.962;2023-03-01T02:31:03;101013.72;;;7.82;57.89
45813;BME280;31519;45.408;10.962;2023-03-01T02:33:52;101004.41;;;7.89;57.35
45813;BME280;31519;45.408;10.962;2023-03-01T02:36:28;101006.16;;;7.55;58.11
45813;BME280;31519;45.408;10.962;2023-03-01T02:38:58;100998.78;;;8.01;57.37
45813;BME280;31519;45.408;10.962;2023-03-01T02:41:31;100996.38;;;7.50;58.55
45813;BME280;31519;45.408;10.962;2023-03-01T02:44:04;100999.94;;;7.80;58.20
45813;BME280;31519;45.408;10.962;2023-03-01T02:46:45;100990.28;;;8.04;57.51
45813;BME280;31519;45.408;10.962;2023-03-01T02:49:23;100991.16;;;7.84;57.30
45813;BME280;31519;45.408;10.962;2023-03-01T02:52:04;100980.06;;;7.82;57.31
45813;BME280;31519;45.408;10.962;2023-03-01T02:54:48;100973.88;;;7.97;57.12
45813;BME280;31519;45.408;10.962;2023-03-01T02:57:19;100969.78;;;7.66;57.75
45813;BME280;31519;45.408;10.962;2023-03-01T02:59:51;100966.28;;;7.75;57.79
45813;BME280;31519;45.408;10.962;2023-03-01T03:02:23;100966.78;;;7.87;57.48
45813;BME280;31519;45.408;10.962;2023-03-01T03:05:23;100968.91;;;7.80;57.46
45813;BME280;31519;45.408;10.962;2023-03-01T03:07:57;100954.97;;;8.03;57.59
45813;BME280;31519;45.408;10.962;2023-03-01T03:10:33;100955.84;;;7.94;57.74
45813;BME280;31519;45.408;10.962;2023-03-01T03:13:06;100961.31;;;8.08;57.44
45813;BME280;31519;45.408;10.962;2023-03-01T03:15:35;100948.81;;;8.13;57.50
45813;BME280;31519;45.408;10.962;2023-03-01T03:18:06;100951.25;;;8.10;57.33
45813;BME280;31519;45.408;10.962;2023-03-01T03:20:35;100955.75;;;8.09;57.88
45813;BME280;31519;45.408;10.962;2023-03-01T03:23:04;100957.75;;;8.27;57.52
45813;BME280;31519;45.408;10.962;2023-03-01T03:25:32;100954.28;;;8.27;57.29
45813;BME280;31519;45.408;10.962;2023-03-01T03:28:00;100959.63;;;8.22;56.88
45813;BME280;31519;45.408;10.962;2023-03-01T03:30:30;100953.56;;;7.77;58.36
45813;BME280;31519;45.408;10.962;2023-03-01T03:32:59;100951.94;;;7.81;58.08
45813;BME280;31519;45.408;10.962;2023-03-01T03:35:34;100947.81;;;7.60;58.66
45813;BME280;31519;45.408;10.962;2023-03-01T03:38:05;100935.13;;;7.52;59.02
45813;BME280;31519;45.408;10.962;2023-03-01T03:40:37;100942.19;;;7.72;58.83
45813;BME280;31519;45.408;10.962;2023-03-01T03:43:11;100951.72;;;7.73;59.11
45813;BME280;31519;45.408;10.962;2023-03-01T03:45:40;100954.16;;;7.64;58.87
45813;BME280;31519;45.408;10.962;2023-03-01T03:48:09;100951.56;;;7.49;59.33
45813;BME280;31519;45.408;10.962;2023-03-01T03:50:39;100946.59;;;7.42;59.11
45813;BME280;31519;45.408;10.962;2023-03-01T03:53:12;100949.28;;;7.27;59.90
45813;BME280;31519;45.408;10.962;2023-03-01T03:55:40;100949.91;;;7.63;59.34
45813;BME280;31519;45.408;10.962;2023-03-01T03:58:10;100953.41;;;7.53;59.25
45813;BME280;31519;45.408;10.962;2023-03-01T04:00:41;100949.13;;;7.63;58.80
45813;BME280;31519;45.408;10.962;2023-03-01T04:03:12;100952.19;;;7.80;58.55
45813;BME280;31519;45.408;10.962;2023-03-01T04:05:41;100947.13;;;7.88;58.87
45813;BME280;31519;45.408;10.962;2023-03-01T04:08:09;100943.50;;;7.74;58.92
45813;BME280;31519;45.408;10.962;2023-03-01T04:10:40;100941.41;;;7.66;58.71
45813;BME280;31519;45.408;10.962;2023-03-01T04:13:11;100944.34;;;7.65;59.09
45813;BME280;31519;45.408;10.962;2023-03-01T04:15:40;100937.94;;;7.71;58.62
45813;BME280;31519;45.408;10.962;2023-03-01T04:18:15;100935.31;;;7.66;59.18
45813;BME280;31519;45.408;10.962;2023-03-01T04:20:44;100933.25;;;7.52;59.10
45813;BME280;31519;45.408;10.962;2023-03-01T04:23:15;100936.81;;;7.87;58.53
45813;BME280;31519;45.408;10.962;2023-03-01T04:25:52;100936.47;;;7.93;58.24
45813;BME280;31519;45.408;10.962;2023-03-01T04:28:32;100934.22;;;7.72;58.69
45813;BME280;31519;45.408;10.962;2023-03-01T04:31:10;100934.84;;;7.58;58.85
45813;BME280;31519;45.408;10.962;2023-03-01T04:33:51;100937.84;;;7.42;59.26
45813;BME280;31519;45.408;10.962;2023-03-01T04:36:24;100930.69;;;7.42;58.96
45813;BME280;31519;45.408;10.962;2023-03-01T04:38:53;100924.81;;;7.45;59.08
45813;BME280;31519;45.408;10.962;2023-03-01T04:41:24;100936.47;;;7.44;59.06
45813;BME280;31519;45.408;10.962;2023-03-01T04:43:52;100933.88;;;7.29;59.53
45813;BME280;31519;45.408;10.962;2023-03-01T04:46:21;100934.38;;;7.41;59.12
45813;BME280;31519;45.408;10.962;2023-03-01T04:48:49;100932.84;;;7.30;58.92
45813;BME280;31519;45.408;10.962;2023-03-01T04:51:18;100930.22;;;7.20;59.40
45813;BME280;31519;45.408;10.962;2023-03-01T04:53:46;100929.94;;;7.27;59.59
45813;BME280;31519;45.408;10.962;2023-03-01T04:56:15;100932.81;;;7.35;59.46
45813;BME280;31519;45.408;10.962;2023-03-01T04:58:44;100928.50;;;7.54;59.45
45813;BME280;31519;45.408;10.962;2023-03-01T05:01:18;100936.69;;;7.58;58.82
45813;BME280;31519;45.408;10.962;2023-03-01T05:03:49;100933.25;;;7.57;59.03
45813;BME280;31519;45.408;10.962;2023-03-01T05:06:19;100931.84;;;7.70;58.51
45813;BME280;31519;45.408;10.962;2023-03-01T05:08:47;100936.94;;;7.56;58.83
45813;BME280;31519;45.408;10.962;2023-03-01T05:11:16;100926.78;;;7.79;58.37
45813;BME280;31519;45.408;10.962;2023-03-01T05:13:43;100925.25;;;7.68;58.43
45813;BME280;31519;45.408;10.962;2023-03-01T05:16:12;100923.16;;;8.03;57.61
45813;BME280;31519;45.408;10.962;2023-03-01T05:18:40;100922.41;;;7.93;57.95
45813;BME280;31519;45.408;10.962;2023-03-01T05:21:11;100913.91;;;8.01;58.17
45813;BME280;31519;45.408;10.962;2023-03-01T05:23:40;100927.56;;;8.18;57.27
45813;BME280;31519;45.408;10.962;2023-03-01T05:26:08;100923.75;;;7.95;58.20
45813;BME280;31519;45.408;10.962;2023-03-01T05:28:54;100921.38;;;8.28;57.42
45813;BME280;31519;45.408;10.962;2023-03-01T05:31:27;100916.22;;;8.08;57.41
45813;BME280;31519;45.408;10.962;2023-03-01T05:33:55;100914.38;;;8.08;57.90
45813;BME280;31519;45.408;10.962;2023-03-01T05:36:24;100911.03;;;8.26;57.67
45813;BME280;31519;45.408;10.962;2023-03-01T05:38:52;100921.16;;;8.24;58.06
45813;BME280;31519;45.408;10.962;2023-03-01T05:41:20;100925.84;;;8.37;58.00
45813;BME280;31519;45.408;10.962;2023-03-01T05:43:49;100924.25;;;8.36;57.86
45813;BME280;31519;45.408;10.962;2023-03-01T05:46:17;100935.84;;;8.45;57.86
45813;BME280;31519;45.408;10.962;2023-03-01T05:48:45;100931.63;;;8.73;57.16
45813;BME280;31519;45.408;10.962;2023-03-01T05:51:13;100920.84;;;8.31;57.77
45813;BME280;31519;45.408;10.962;2023-03-01T05:53:41;100917.75;;;8.19;58.07
45813;BME280;31519;45.408;10.962;2023-03-01T05:56:09;100910.69;;;8.43;57.91
45813;BME280;31519;45.408;10.962;2023-03-01T05:58:38;100918.69;;;8.38;57.88
45813;BME280;31519;45.408;10.962;2023-03-01T06:01:11;100916.06;;;8.28;58.27
45813;BME280;31519;45.408;10.962;2023-03-01T06:03:40;100922.06;;;8.43;58.90
45813;BME280;31519;45.408;10.962;2023-03-01T06:06:08;100925.25;;;8.45;58.56
45813;BME280;31519;45.408;10.962;2023-03-01T06:08:36;100926.06;;;8.41;58.94
45813;BME280;31519;45.408;10.962;2023-03-01T06:11:04;100921.38;;;8.28;59.41
45813;BME280;31519;45.408;10.962;2023-03-01T06:13:33;100917.94;;;8.27;59.32
45813;BME280;31519;45.408;10.962;2023-03-01T06:16:04;100926.75;;;8.57;58.54
45813;BME280;31519;45.408;10.962;2023-03-01T06:18:33;100919.00;;;8.60;58.06
45813;BME280;31519;45.408;10.962;2023-03-01T06:21:01;100929.53;;;8.70;58.21
45813;BME280;31519;45.408;10.962;2023-03-01T06:23:30;100930.50;;;8.51;58.09
45813;BME280;31519;45.408;10.962;2023-03-01T06:25:59;100932.28;;;8.60;57.58
45813;BME280;31519;45.408;10.962;2023-03-01T06:28:27;100931.75;;;8.58;57.50
45813;BME280;31519;45.408;10.962;2023-03-01T06:30:55;100917.59;;;8.39;57.54
45813;BME280;31519;45.408;10.962;2023-03-01T06:33:23;100912.34;;;8.34;57.53
45813;BME280;31519;45.408;10.962;2023-03-01T06:35:55;100908.06;;;8.38;58.01
45813;BME280;31519;45.408;10.962;2023-03-01T06:38:24;100907.13;;;8.53;56.78
45813;BME280;31519;45.408;10.962;2023-03-01T06:40:54;100909.41;;;8.35;56.99
45813;BME280;31519;45.408;10.962;2023-03-01T06:43:24;100908.09;;;8.62;56.79
45813;BME280;31519;45.408;10.962;2023-03-01T06:45:52;100912.84;;;8.65;56.40
45813;BME280;31519;45.408;10.962;2023-03-01T06:48:20;100905.44;;;8.62;56.77
45813;BME280;31519;45.408;10.962;2023-03-01T06:50:47;100907.41;;;8.51;56.83
45813;BME280;31519;45.408;10.962;2023-03-01T06:53:16;100905.63;;;8.70;56.60
45813;BME280;31519;45.408;10.962;2023-03-01T06:55:44;100908.22;;;8.52;57.14
45813;BME280;31519;45.408;10.962;2023-03-01T06:58:12;100913.22;;;8.82;56.86
45813;BME280;31519;45.408;10.962;2023-03-01T07:00:41;100914.91;;;8.73;57.31
45813;BME280;31519;45.408;10.962;2023-03-01T07:03:10;100918.47;;;8.87;56.69
45813;BME280;31519;45.408;10.962;2023-03-01T07:05:39;100922.06;;;8.72;57.64
45813;BME280;31519;45.408;10.962;2023-03-01T07:08:09;100922.66;;;8.93;57.27
45813;BME280;31519;45.408;10.962;2023-03-01T07:10:37;100913.59;;;8.94;57.30
45813;BME280;31519;45.408;10.962;2023-03-01T07:13:05;100915.66;;;9.02;56.96
45813;BME280;31519;45.408;10.962;2023-03-01T07:15:34;100910.84;;;9.04;56.90
45813;BME280;31519;45.408;10.962;2023-03-01T07:18:02;100903.28;;;9.16;56.57
45813;BME280;31519;45.408;10.962;2023-03-01T07:20:30;100911.53;;;9.15;56.19
45813;BME280;31519;45.408;10.962;2023-03-01T07:22:58;100904.41;;;9.10;56.33
45813;BME280;31519;45.408;10.962;2023-03-01T07:25:26;100907.50;;;9.17;56.48
45813;BME280;31519;45.408;10.962;2023-03-01T07:27:54;100902.63;;;9.24;56.04
45813;BME280;31519;45.408;10.962;2023-03-01T07:30:23;100900.03;;;9.19;55.83
45813;BME280;31519;45.408;10.962;2023-03-01T07:32:55;100906.38;;;9.23;56.27
45813;BME280;31519;45.408;10.962;2023-03-01T07:35:25;100910.13;;;9.41;55.60
45813;BME280;31519;45.408;10.962;2023-03-01T07:37:54;100890.16;;;9.44;55.21
45813;BME280;31519;45.408;10.962;2023-03-01T07:40:22;100902.66;;;9.43;54.65
45813;BME280;31519;45.408;10.962;2023-03-01T07:42:58;100893.84;;;9.66;54.16
45813;BME280;31519;45.408;10.962;2023-03-01T07:45:26;100898.78;;;9.73;53.46
45813;BME280;31519;45.408;10.962;2023-03-01T07:47:55;100897.06;;;9.82;53.05
45813;BME280;31519;45.408;10.962;2023-03-01T07:50:23;100887.72;;;9.85;52.66
45813;BME280;31519;45.408;10.962;2023-03-01T07:52:51;100865.19;;;9.77;53.17
45813;BME280;31519;45.408;10.962;2023-03-01T07:55:19;100865.50;;;9.94;52.66
45813;BME280;31519;45.408;10.962;2023-03-01T07:57:47;100863.06;;;10.11;52.01
45813;BME280;31519;45.408;10.962;2023-03-01T08:00:15;100861.22;;;10.12;51.58
45813;BME280;31519;45.408;10.962;2023-03-01T08:02:44;100861.16;;;10.17;51.88
45813;BME280;31519;45.408;10.962;2023-03-01T08:05:13;100865.53;;;10.08;52.24
45813;BME280;31519;45.408;10.962;2023-03-01T08:07:41;100863.03;;;10.16;52.73
45813;BME280;31519;45.408;10.962;2023-03-01T08:10:11;100855.06;;;10.30;52.64
45813;BME280;31519;45.408;10.962;2023-03-01T08:12:39;100851.25;;;10.63;52.56
45813;BME280;31519;45.408;10.962;2023-03-01T08:15:07;100845.16;;;10.77;52.14
45813;BME280;31519;45.408;10.962;2023-03-01T08:17:36;100842.88;;;10.84;51.70
45813;BME280;31519;45.408;10.962;2023-03-01T08:20:04;100823.53;;;10.92;51.83
45813;BME280;31519;45.408;10.962;2023-03-01T08:22:35;100821.41;;;11.16;51.42
45813;BME280;31519;45.408;10.962;2023-03-01T08:25:03;100822.59;;;11.24;51.41
45813;BME280;31519;45.408;10.962;2023-03-01T08:27:31;100823.28;;;11.16;51.32
45813;BME280;31519;45.408;10.962;2023-03-01T08:29:59;100829.53;;;11.47;50.70
45813;BME280;31519;45.408;10.962;2023-03-01T08:32:27;100827.44;;;11.22;51.12
45813;BME280;31519;45.408;10.962;2023-03-01T08:34:55;100835.38;;;11.49;50.95
45813;BME280;31519;45.408;10.962;2023-03-01T08:37:23;100830.28;;;11.61;51.23
45813;BME280;31519;45.408;10.962;2023-03-01T08:39:51;100833.03;;;11.34;52.70
45813;BME280;31519;45.408;10.962;2023-03-01T08:42:19;100832.03;;;11.66;52.30
45813;BME280;31519;45.408;10.962;2023-03-01T08:44:47;100835.25;;;11.54;52.75
45813;BME280;31519;45.408;10.962;2023-03-01T08:47:17;100827.31;;;11.63;53.25
45813;BME280;31519;45.408;10.962;2023-03-01T08:49:45;100822.47;;;11.29;53.59
45813;BME280;31519;45.408;10.962;2023-03-01T08:52:13;100818.47;;;11.18;54.16
45813;BME280;31519;45.408;10.962;2023-03-01T08:54:41;100821.16;;;11.04;53.39
45813;BME280;31519;45.408;10.962;2023-03-01T08:57:10;100825.81;;;11.34;52.86
45813;BME280;31519;45.408;10.962;2023-03-01T08:59:38;100815.38;;;11.24;52.07
45813;BME280;31519;45.408;10.962;2023-03-01T09:02:11;100788.38;;;11.39;51.39
45813;BME280;31519;45.408;10.962;2023-03-01T09:04:40;100780.56;;;11.43;51.18
45813;BME280;31519;45.408;10.962;2023-03-01T09:07:09;100784.06;;;11.52;50.82
45813;BME280;31519;45.408;10.962;2023-03-01T09:09:37;100787.56;;;11.75;50.24
45813;BME280;31519;45.408;10.962;2023-03-01T09:12:06;100791.63;;;11.72;49.79
45813;BME280;31519;45.408;10.962;2023-03-01T09:14:34;100789.97;;;11.85;48.54
45813;BME280;31519;45.408;10.962;2023-03-01T09:17:02;100780.22;;;11.80;46.60
45813;BME280;31519;45.408;10.962;2023-03-01T09:19:31;100775.44;;;11.91;45.81
45813;BME280;31519;45.408;10.962;2023-03-01T09:21:59;100776.81;;;11.88;45.57
45813;BME280;31519;45.408;10.962;2023-03-01T09:24:27;100780.69;;;12.05;44.79
45813;BME280;31519;45.408;10.962;2023-03-01T09:26:56;100776.22;;;12.22;45.07
45813;BME280;31519;45.408;10.962;2023-03-01T09:29:24;100787.69;;;12.23;45.09
45813;BME280;31519;45.408;10.962;2023-03-01T09:31:54;100780.72;;;12.13;45.63
45813;BME280;31519;45.408;10.962;2023-03-01T09:34:24;100791.63;;;11.94;46.81
45813;BME280;31519;45.408;10.962;2023-03-01T09:36:53;100779.34;;;11.71;47.73
45813;BME280;31519;45.408;10.962;2023-03-01T09:39:21;100777.34;;;11.54;48.05
45813;BME280;31519;45.408;10.962;2023-03-01T09:42:00;100771.03;;;11.50;49.05
45813;BME280;31519;45.408;10.962;2023-03-01T09:44:36;100767.84;;;11.62;49.00
45813;BME280;31519;45.408;10.962;2023-03-01T09:47:16;100769.09;;;11.65;48.69
45813;BME280;31519;45.408;10.962;2023-03-01T09:52:46;100742.28;;;11.70;48.40
45813;BME280;31519;45.408;10.962;2023-03-01T09:55:24;100746.66;;;12.19;47.91
45813;BME280;31519;45.408;10.962;2023-03-01T09:58:00;100744.44;;;12.12;47.77
45813;BME280;31519;45.408;10.962;2023-03-01T10:00:42;100743.41;;;12.30;47.83
45813;BME280;31519;45.408;10.962;2023-03-01T10:11:31;100745.44;;;11.72;49.47
45813;BME280;31519;45.408;10.962;2023-03-01T10:15:30;100735.19;;;11.87;49.65
45813;BME280;31519;45.408;10.962;2023-03-01T10:19:52;100742.56;;;12.13;49.62
45813;BME280;31519;45.408;10.962;2023-03-01T10:22:30;100739.09;;;12.12;49.89
45813;BME280;31519;45.408;10.962;2023-03-01T10:25:02;100733.84;;;11.98;50.23
45813;BME280;31519;45.408;10.962;2023-03-01T10:27:39;100730.56;;;12.02;50.18
45813;BME280;31519;45.408;10.962;2023-03-01T10:30:21;100735.78;;;11.76;51.21
45813;BME280;31519;45.408;10.962;2023-03-01T10:32:52;100737.03;;;12.09;50.18
45813;BME280;31519;45.408;10.962;2023-03-01T10:35:25;100732.09;;;12.33;49.90
45813;BME280;31519;45.408;10.962;2023-03-01T10:38:13;100728.03;;;12.36;49.40
45813;BME280;31519;45.408;10.962;2023-03-01T10:41:04;100729.19;;;12.13;49.50
45813;BME280;31519;45.408;10.962;2023-03-01T10:43:54;100719.06;;;12.32;49.00
45813;BME280;31519;45.408;10.962;2023-03-01T10:49:07;100719.09;;;12.49;48.93
45813;BME280;31519;45.408;10.962;2023-03-01T10:51:38;100720.06;;;12.53;48.96
45813;BME280;31519;45.408;10.962;2023-03-01T10:54:40;100713.94;;;12.61;48.68
45813;BME280;31519;45.408;10.962;2023-03-01T10:57:05;100719.13;;;12.58;48.44
45813;BME280;31519;45.408;10.962;2023-03-01T10:59:38;100702.16;;;12.71;48.35
45813;BME280;31519;45.408;10.962;2023-03-01T11:07:26;100707.06;;;12.95;47.04
45813;BME280;31519;45.408;10.962;2023-03-01T11:09:54;100706.75;;;12.87;46.78
45813;BME280;31519;45.408;10.962;2023-03-01T11:12:24;100723.25;;;12.89;46.37
45813;BME280;31519;45.408;10.962;2023-03-01T11:14:55;100719.78;;;12.89;46.77
45813;BME280;31519;45.408;10.962;2023-03-01T11:17:30;100713.66;;;12.80;47.27
45813;BME280;31519;45.408;10.962;2023-03-01T11:20:18;100711.47;;;12.99;47.04
45813;BME280;31519;45.408;10.962;2023-03-01T11:22:54;100714.28;;;12.68;46.72
45813;BME280;31519;45.408;10.962;2023-03-01T11:25:35;100716.31;;;12.97;46.51
45813;BME280;31519;45.408;10.962;2023-03-01T11:28:05;100721.66;;;12.80;47.01
45813;BME280;31519;45.408;10.962;2023-03-01T11:30:40;100727.16;;;12.75;47.55
45813;BME280;31519;45.408;10.962;2023-03-01T11:33:17;100733.00;;;12.77;47.88
45813;BME280;31519;45.408;10.962;2023-03-01T11:35:55;100734.84;;;12.59;48.40
45813;BME280;31519;45.408;10.962;2023-03-01T11:38:27;100735.31;;;12.70;48.39
45813;BME280;31519;45.408;10.962;2023-03-01T11:41:20;100731.13;;;13.03;47.65
45813;BME280;31519;45.408;10.962;2023-03-01T11:43:55;100730.47;;;12.80;47.74
45813;BME280;31519;45.408;10.962;2023-03-01T11:49:16;100737.72;;;12.88;47.45
45813;BME280;31519;45.408;10.962;2023-03-01T11:57:16;100746.44;;;13.28;47.15
45813;BME280;31519;45.408;10.962;2023-03-01T12:00:02;100742.94;;;13.11;48.74
45813;BME280;31519;45.408;10.962;2023-03-01T12:05:50;100737.94;;;13.18;49.32
45813;BME280;31519;45.408;10.962;2023-03-01T13:02:55;100695.28;;;12.87;53.48
45813;BME280;31519;45.408;10.962;2023-03-01T13:05:56;100690.38;;;12.98;53.55
45813;BME280;31519;45.408;10.962;2023-03-01T13:08:58;100683.00;;;13.29;53.29
45813;BME280;31519;45.408;10.962;2023-03-01T13:11:29;100687.69;;;13.06;53.10
45813;BME280;31519;45.408;10.962;2023-03-01T13:14:42;100690.72;;;13.30;52.81
45813;BME280;31519;45.408;10.962;2023-03-01T13:17:30;100685.38;;;13.13;53.50
45813;BME280;31519;45.408;10.962;2023-03-01T13:19:59;100695.78;;;13.15;54.02
45813;BME280;31519;45.408;10.962;2023-03-01T13:22:32;100676.38;;;12.75;53.50
45813;BME280;31519;45.408;10.962;2023-03-01T13:25:16;100681.53;;;12.46;52.08
45813;BME280;31519;45.408;10.962;2023-03-01T13:27:46;100684.69;;;12.56;51.46
45813;BME280;31519;45.408;10.962;2023-03-01T13:35:51;100671.66;;;12.63;50.62
45813;BME280;31519;45.408;10.962;2023-03-01T13:41:07;100668.34;;;12.66;49.27
45813;BME280;31519;45.408;10.962;2023-03-01T13:43:37;100674.97;;;12.86;49.52
45813;BME280;31519;45.408;10.962;2023-03-01T13:46:32;100667.25;;;12.76;50.75
45813;BME280;31519;45.408;10.962;2023-03-01T13:49:02;100662.66;;;12.42;51.81
45813;BME280;31519;45.408;10.962;2023-03-01T13:51:30;100675.97;;;12.25;52.41
45813;BME280;31519;45.408;10.962;2023-03-01T13:53:59;100666.25;;;12.29;52.30
45813;BME280;31519;45.408;10.962;2023-03-01T13:56:34;100674.13;;;12.34;52.73
45813;BME280;31519;45.408;10.962;2023-03-01T13:59:15;100667.22;;;12.41;52.50
45813;BME280;31519;45.408;10.962;2023-03-01T14:01:44;100664.38;;;12.38;52.20
45813;BME280;31519;45.408;10.962;2023-03-01T14:04:23;100670.25;;;12.74;50.87
45813;BME280;31519;45.408;10.962;2023-03-01T14:06:52;100668.66;;;12.48;50.44
45813;BME280;31519;45.408;10.962;2023-03-01T14:09:41;100670.53;;;12.56;51.77
45813;BME280;31519;45.408;10.962;2023-03-01T14:15:19;100678.28;;;12.01;54.75
45813;BME280;31519;45.408;10.962;2023-03-01T14:20:42;100694.75;;;12.03;56.07
45813;BME280;31519;45.408;10.962;2023-03-01T14:23:15;100693.38;;;12.05;57.17
45813;BME280;31519;45.408;10.962;2023-03-01T14:26:04;100688.44;;;11.90;58.08
45813;BME280;31519;45.408;10.962;2023-03-01T14:28:32;100697.38;;;11.63;59.17
45813;BME280;31519;45.408;10.962;2023-03-01T14:31:03;100692.91;;;11.72;59.71
45813;BME280;31519;45.408;10.962;2023-03-01T14:33:34;100692.91;;;11.50;60.89
45813;BME280;31519;45.408;10.962;2023-03-01T14:36:10;100690.59;;;11.57;61.84
45813;BME280;31519;45.408;10.962;2023-03-01T14:38:41;100695.41;;;11.55;62.65
45813;BME280;31519;45.408;10.962;2023-03-01T14:41:17;100696.03;;;11.52;63.35
45813;BME280;31519;45.408;10.962;2023-03-01T14:43:58;100687.00;;;11.62;63.45
45813;BME280;31519;45.408;10.962;2023-03-01T14:46:39;100695.91;;;11.57;63.29
45813;BME280;31519;45.408;10.962;2023-03-01T14:49:19;100686.34;;;11.34;64.05
45813;BME280;31519;45.408;10.962;2023-03-01T14:52:01;100684.47;;;11.34;64.12
45813;BME280;31519;45.408;10.962;2023-03-01T14:54:54;100684.19;;;11.14;64.67
45813;BME280;31519;45.408;10.962;2023-03-01T14:57:22;100682.56;;;11.57;64.17
45813;BME280;31519;45.408;10.962;2023-03-01T14:59:52;100692.28;;;11.75;63.99